createdAt,value
2023-05-16T00:00:11.013Z,15.53
2023-05-16T00:05:16.942Z,15.98
2023-05-16T00:07:46.149Z,16.70
2023-05-16T00:10:14.736Z,16.63
2023-05-16T00:12:44.979Z,16.63
2023-05-16T00:15:14.533Z,15.77
2023-05-16T00:17:44.130Z,17.07
2023-05-16T00:20:14.891Z,16.60
2023-05-16T00:22:42.833Z,18.93
2023-05-16T00:25:11.558Z,19.17
2023-05-16T00:27:40.059Z,18.07
2023-05-16T00:30:08.806Z,18.43
2023-05-16T00:32:37.135Z,18.03
2023-05-16T00:35:05.981Z,18.40
2023-05-16T00:37:34.413Z,16.90
2023-05-16T00:40:02.334Z,17.57
2023-05-16T00:42:30.875Z,19.00
2023-05-16T00:44:59.213Z,18.47
2023-05-16T00:47:27.674Z,17.60
2023-05-16T00:49:56.803Z,18.40
2023-05-16T00:52:25.949Z,15.60
2023-05-16T00:54:54.278Z,18.47
2023-05-16T00:57:22.842Z,19.97
2023-05-16T00:59:51.147Z,19.20
2023-05-16T01:02:20.670Z,17.60
2023-05-16T01:07:17.107Z,17.75
2023-05-16T01:09:45.041Z,16.93
2023-05-16T01:12:17.725Z,17.37
2023-05-16T01:14:48.067Z,16.57
2023-05-16T01:17:20.843Z,16.47
2023-05-16T01:19:50.902Z,15.73
2023-05-16T01:22:33.460Z,16.53
2023-05-16T01:25:09.518Z,17.47
2023-05-16T01:27:38.787Z,15.93
2023-05-16T01:30:18.168Z,16.33
2023-05-16T01:32:46.949Z,15.63
2023-05-16T01:35:17.480Z,15.13
2023-05-16T01:37:58.984Z,16.27
2023-05-16T01:40:40.549Z,14.60
2023-05-16T01:43:10.564Z,12.87
2023-05-16T01:45:40.429Z,15.57
2023-05-16T01:48:11.185Z,14.10
2023-05-16T01:50:41.445Z,15.67
2023-05-16T01:53:12.078Z,16.77
2023-05-16T01:55:50.477Z,16.83
2023-05-16T01:58:20.434Z,15.50
2023-05-16T02:00:49.112Z,16.97
2023-05-16T02:03:17.885Z,15.40
2023-05-16T02:05:46.552Z,14.13
2023-05-16T02:08:14.958Z,14.70
2023-05-16T02:10:43.413Z,14.20
2023-05-16T02:13:11.800Z,15.30
2023-05-16T02:15:40.188Z,14.27
2023-05-16T02:18:09.919Z,13.93
2023-05-16T02:20:38.368Z,13.40
2023-05-16T02:23:06.267Z,13.40
2023-05-16T02:25:34.608Z,13.60
2023-05-16T02:28:02.931Z,13.63
2023-05-16T02:30:30.909Z,13.90
2023-05-16T02:32:59.468Z,14.23
2023-05-16T02:35:27.919Z,12.73
2023-05-16T02:37:57.819Z,12.63
2023-05-16T02:40:26.238Z,13.47
2023-05-16T02:42:54.709Z,13.30
2023-05-16T02:45:23.186Z,14.33
2023-05-16T02:47:51.722Z,13.67
2023-05-16T02:50:19.749Z,13.13
2023-05-16T02:52:47.647Z,14.03
2023-05-16T02:55:23.868Z,14.17
2023-05-16T02:57:46.204Z,13.40
2023-05-16T03:00:16.715Z,14.03
2023-05-16T03:02:45.932Z,13.63
2023-05-16T03:05:14.619Z,14.20
2023-05-16T03:07:43.102Z,12.67
2023-05-16T03:10:11.535Z,12.40
2023-05-16T03:12:40.063Z,14.20
2023-05-16T03:15:09.615Z,13.63
2023-05-16T03:17:38.111Z,13.80
2023-05-16T03:20:08.373Z,14.13
2023-05-16T03:22:36.241Z,13.90
2023-05-16T03:25:04.842Z,15.77
2023-05-16T03:27:33.307Z,14.83
2023-05-16T03:30:01.197Z,15.00
2023-05-16T03:32:29.511Z,13.67
2023-05-16T03:34:58.290Z,14.27
2023-05-16T03:37:26.983Z,14.00
2023-05-16T03:39:55.352Z,14.07
2023-05-16T03:42:23.887Z,12.37
2023-05-16T03:44:52.363Z,14.93
2023-05-16T03:47:20.865Z,16.13
2023-05-16T03:49:49.436Z,14.83
2023-05-16T03:52:17.399Z,13.57
2023-05-16T03:54:45.813Z,14.77
2023-05-16T03:57:14.086Z,15.33
2023-05-16T03:59:42.567Z,16.83
2023-05-16T04:02:11.432Z,15.23
2023-05-16T04:04:39.912Z,13.87
2023-05-16T04:07:08.658Z,14.57
2023-05-16T04:09:37.286Z,16.67
2023-05-16T04:12:05.976Z,16.40
2023-05-16T04:14:35.166Z,16.30
2023-05-16T04:17:03.477Z,15.87
2023-05-16T04:19:32.210Z,15.70
2023-05-16T04:22:00.041Z,17.10
2023-05-16T04:24:29.319Z,16.23
2023-05-16T04:26:57.888Z,18.00
2023-05-16T04:29:26.633Z,17.97
2023-05-16T04:31:55.137Z,16.70
2023-05-16T04:34:25.388Z,16.77
2023-05-16T04:36:53.753Z,16.80
2023-05-16T04:39:22.093Z,17.00
2023-05-16T04:41:49.988Z,16.33
2023-05-16T04:44:17.933Z,16.13
2023-05-16T04:46:46.365Z,16.47
2023-05-16T04:49:14.543Z,16.73
2023-05-16T04:51:42.541Z,16.60
2023-05-16T04:54:10.811Z,15.03
2023-05-16T04:56:39.255Z,16.97
2023-05-16T04:59:07.630Z,15.53
2023-05-16T05:01:36.385Z,15.70
2023-05-16T05:04:05.476Z,16.97
2023-05-16T05:06:33.961Z,15.57
2023-05-16T05:09:02.607Z,16.20
2023-05-16T05:11:30.963Z,16.17
2023-05-16T05:13:59.273Z,15.30
2023-05-16T05:16:27.178Z,14.30
2023-05-16T05:18:56.002Z,15.17
2023-05-16T05:21:25.915Z,16.07
2023-05-16T05:23:54.358Z,15.33
2023-05-16T05:26:22.328Z,15.17
2023-05-16T05:29:01.154Z,14.40
2023-05-16T05:31:20.981Z,14.13
2023-05-16T05:33:49.442Z,14.70
2023-05-16T05:36:17.575Z,13.57
2023-05-16T05:38:46.103Z,14.47
2023-05-16T05:41:14.742Z,14.07
2023-05-16T05:43:43.198Z,14.47
2023-05-16T05:46:11.906Z,12.90
2023-05-16T05:48:40.634Z,12.73
2023-05-16T05:51:08.915Z,12.83
2023-05-16T05:53:37.501Z,12.23
2023-05-16T05:56:06.392Z,11.97
2023-05-16T05:58:34.858Z,11.70
2023-05-16T06:01:03.266Z,11.70
2023-05-16T06:03:32.475Z,11.83
2023-05-16T06:06:01.686Z,12.30
2023-05-16T06:08:30.072Z,12.37
2023-05-16T06:10:58.018Z,11.00
2023-05-16T06:13:26.537Z,11.70
2023-05-16T06:15:55.657Z,11.90
2023-05-16T06:18:24.284Z,10.27
2023-05-16T06:20:53.892Z,10.50
2023-05-16T06:23:22.105Z,10.33
2023-05-16T06:25:50.633Z,10.10
2023-05-16T06:28:19.311Z,10.50
2023-05-16T06:30:47.934Z,11.50
2023-05-16T06:33:16.494Z,10.47
2023-05-16T06:35:44.856Z,12.27
2023-05-16T06:38:12.837Z,11.87
2023-05-16T06:40:41.383Z,10.33
2023-05-16T06:43:10.003Z,8.53
2023-05-16T06:45:38.595Z,12.20
2023-05-16T06:48:07.993Z,12.93
2023-05-16T06:53:05.428Z,10.40
2023-05-16T06:58:01.405Z,13.00
2023-05-16T07:00:29.860Z,12.50
2023-05-16T07:03:00.839Z,11.30
2023-05-16T07:05:29.593Z,11.90
2023-05-16T07:07:58.603Z,13.73
2023-05-16T07:10:28.010Z,13.33
2023-05-16T07:12:57.307Z,12.23
2023-05-16T07:17:53.491Z,13.32
2023-05-16T07:20:22.244Z,12.43
2023-05-16T07:22:51.123Z,12.50
2023-05-16T07:25:19.733Z,10.50
2023-05-16T07:27:48.295Z,12.97
2023-05-16T07:30:16.791Z,10.93
2023-05-16T07:32:44.740Z,11.73
2023-05-16T07:35:14.253Z,13.17
2023-05-16T07:37:44.388Z,15.07
2023-05-16T07:40:13.267Z,13.20
2023-05-16T07:42:41.951Z,13.83
2023-05-16T07:45:10.767Z,11.77
2023-05-16T07:47:38.843Z,11.80
2023-05-16T07:50:07.910Z,10.43
2023-05-16T07:52:36.683Z,9.63
2023-05-16T07:55:05.285Z,11.10
2023-05-16T07:57:33.649Z,12.10
2023-05-16T08:00:02.257Z,12.47
2023-05-16T08:02:31.689Z,14.10
2023-05-16T08:05:00.365Z,14.37
2023-05-16T08:07:28.392Z,13.77
2023-05-16T08:09:56.774Z,12.33
2023-05-16T08:12:25.559Z,12.13
2023-05-16T08:14:53.926Z,11.00
2023-05-16T08:17:22.513Z,11.03
2023-05-16T08:19:50.845Z,11.13
2023-05-16T08:22:19.411Z,11.50
2023-05-16T08:24:48.194Z,8.83
2023-05-16T08:27:16.965Z,10.73
2023-05-16T08:29:45.340Z,10.70
2023-05-16T08:32:14.034Z,9.70
2023-05-16T08:34:43.232Z,7.20
2023-05-16T08:37:11.920Z,9.53
2023-05-16T08:39:40.752Z,7.10
2023-05-16T08:42:09.729Z,7.90
2023-05-16T08:44:38.487Z,7.97
2023-05-16T08:47:17.241Z,8.90
2023-05-16T08:49:47.638Z,8.17
2023-05-16T08:52:18.586Z,8.83
2023-05-16T08:54:55.268Z,8.83
2023-05-16T08:57:18.825Z,8.47
2023-05-16T08:59:47.740Z,8.63
2023-05-16T09:02:16.579Z,7.77
2023-05-16T09:04:48.058Z,8.37
2023-05-16T09:07:16.841Z,8.73
2023-05-16T09:09:45.301Z,8.03
2023-05-16T09:12:14.015Z,8.50
2023-05-16T09:14:43.198Z,8.43
2023-05-16T09:19:40.498Z,7.33
2023-05-16T09:22:15.692Z,8.70
2023-05-16T09:24:45.030Z,8.50
2023-05-16T09:27:14.524Z,8.70
2023-05-16T09:29:44.354Z,9.00
2023-05-16T09:32:16.295Z,7.50
2023-05-16T09:34:46.724Z,8.97
2023-05-16T09:37:15.070Z,8.50
2023-05-16T09:39:45.003Z,9.30
2023-05-16T09:42:13.711Z,8.53
2023-05-16T09:44:42.291Z,9.07
2023-05-16T09:47:10.880Z,8.00
2023-05-16T09:49:39.444Z,8.87
2023-05-16T09:52:08.157Z,9.27
2023-05-16T09:54:36.918Z,8.63
2023-05-16T09:57:05.933Z,8.30
2023-05-16T09:59:38.408Z,7.80
2023-05-16T10:02:09.184Z,8.80
2023-05-16T10:04:38.549Z,9.40
2023-05-16T10:07:09.485Z,8.63
2023-05-16T10:09:38.374Z,7.17
2023-05-16T10:12:08.480Z,7.37
2023-05-16T10:14:40.343Z,7.17
2023-05-16T10:17:08.968Z,8.27
2023-05-16T10:19:39.196Z,7.83
2023-05-16T10:22:08.363Z,9.87
2023-05-16T10:29:39.999Z,8.73
2023-05-16T10:32:02.882Z,9.00
2023-05-16T10:34:31.016Z,9.50
2023-05-16T10:36:59.747Z,8.50
2023-05-16T10:39:28.935Z,8.37
2023-05-16T10:44:24.845Z,9.98
2023-05-16T10:46:53.375Z,9.10
2023-05-16T10:49:22.520Z,10.00
2023-05-16T10:51:55.123Z,9.93
2023-05-16T10:54:27.008Z,10.80
2023-05-16T10:56:58.559Z,9.97
2023-05-16T10:59:28.870Z,9.83
2023-05-16T11:01:57.838Z,9.17
2023-05-16T11:06:55.015Z,7.67
2023-05-16T11:09:25.065Z,7.83
2023-05-16T11:11:55.498Z,7.60
2023-05-16T11:14:33.698Z,7.70
2023-05-16T11:17:09.419Z,8.70
2023-05-16T11:19:48.248Z,7.70
2023-05-16T11:22:22.922Z,6.70
2023-05-16T11:24:55.849Z,7.40
2023-05-16T11:27:34.309Z,7.67
2023-05-16T11:30:07.794Z,7.83
2023-05-16T11:32:37.236Z,9.27
2023-05-16T11:35:06.265Z,9.50
2023-05-16T11:37:34.686Z,8.13
2023-05-16T11:40:04.700Z,8.17
2023-05-16T11:42:34.922Z,8.47
2023-05-16T11:45:07.267Z,6.87
2023-05-16T11:47:38.081Z,8.27
2023-05-16T11:50:14.408Z,8.30
2023-05-16T11:52:46.238Z,8.27
2023-05-16T11:55:21.459Z,8.97
2023-05-16T11:57:45.996Z,8.13
2023-05-16T12:00:18.179Z,8.60
2023-05-16T12:02:48.553Z,8.27
2023-05-16T12:05:18.460Z,8.07
2023-05-16T12:07:47.780Z,9.10
2023-05-16T12:12:43.739Z,7.58
2023-05-16T12:15:12.498Z,7.47
2023-05-16T12:17:41.928Z,7.73
2023-05-16T12:20:15.014Z,7.43
2023-05-16T12:22:43.634Z,7.47
2023-05-16T12:25:25.817Z,7.17
2023-05-16T12:27:55.077Z,7.87
2023-05-16T12:30:25.482Z,6.93
2023-05-16T12:32:55.228Z,6.57
2023-05-16T12:35:23.382Z,7.60
2023-05-16T12:37:52.388Z,8.03
2023-05-16T12:40:21.511Z,7.93
2023-05-16T12:47:47.261Z,8.83
2023-05-16T12:50:18.100Z,8.60
2023-05-16T12:52:50.372Z,8.93
2023-05-16T12:55:19.565Z,8.67
2023-05-16T13:00:19.017Z,9.30
2023-05-16T13:02:48.506Z,9.90
2023-05-16T13:05:18.354Z,9.13
2023-05-16T13:07:46.888Z,8.60
2023-05-16T13:10:14.914Z,8.20
2023-05-16T13:12:43.528Z,8.50
2023-05-16T13:15:12.585Z,8.83
2023-05-16T13:17:41.856Z,8.23
2023-05-16T13:20:11.945Z,6.97
2023-05-16T13:22:40.760Z,7.40
2023-05-16T13:25:09.643Z,8.40
2023-05-16T13:27:37.885Z,8.30
2023-05-16T13:30:06.491Z,7.97
2023-05-16T13:32:35.360Z,7.93
2023-05-16T13:35:04.675Z,8.20
2023-05-16T13:37:32.665Z,8.53
2023-05-16T13:40:00.636Z,8.30
2023-05-16T13:42:29.314Z,7.87
2023-05-16T13:44:58.000Z,7.70
2023-05-16T13:47:26.856Z,7.47
2023-05-16T13:49:54.813Z,6.97
2023-05-16T13:52:23.312Z,7.83
2023-05-16T13:54:52.946Z,8.63
2023-05-16T13:57:23.280Z,9.17
2023-05-16T14:02:21.564Z,12.10
2023-05-16T14:04:50.241Z,11.77
2023-05-16T14:07:19.010Z,9.77
2023-05-16T14:09:47.733Z,9.97
2023-05-16T14:12:16.305Z,9.33
2023-05-16T14:14:44.651Z,9.13
2023-05-16T14:17:15.206Z,7.67
2023-05-16T14:19:43.695Z,10.87
2023-05-16T14:22:11.668Z,10.47
2023-05-16T14:24:39.811Z,9.40
2023-05-16T14:27:08.216Z,11.77
2023-05-16T14:29:36.562Z,9.47
2023-05-16T14:32:05.100Z,9.60
2023-05-16T14:34:34.044Z,10.47
2023-05-16T14:37:02.863Z,9.37
2023-05-16T14:39:31.436Z,9.97
2023-05-16T14:41:59.924Z,9.83
2023-05-16T14:44:28.384Z,10.30
2023-05-16T14:46:56.340Z,10.20
2023-05-16T14:49:24.864Z,9.57
2023-05-16T14:51:53.549Z,11.27
2023-05-16T14:54:21.486Z,12.10
2023-05-16T14:56:50.075Z,11.23
2023-05-16T14:59:18.585Z,11.20
2023-05-16T15:01:47.605Z,11.60
2023-05-16T15:04:16.484Z,12.93
2023-05-16T15:06:45.049Z,12.37
2023-05-16T15:09:14.062Z,12.30
2023-05-16T15:11:42.424Z,14.00
2023-05-16T15:14:10.878Z,17.70
2023-05-16T15:16:39.740Z,17.83
2023-05-16T15:19:08.546Z,19.00
2023-05-16T15:21:36.446Z,22.83
2023-05-16T15:24:04.538Z,19.30
2023-05-16T15:26:33.174Z,16.50
2023-05-16T15:29:01.589Z,13.20
2023-05-16T15:31:31.851Z,16.00
2023-05-16T15:34:00.517Z,16.83
2023-05-16T15:36:29.118Z,12.50
2023-05-16T15:38:57.771Z,13.70
2023-05-16T15:41:43.639Z,11.93
2023-05-16T15:43:56.986Z,10.63
2023-05-16T15:46:25.397Z,11.30
2023-05-16T15:48:53.654Z,16.73
2023-05-16T15:51:22.222Z,12.13
2023-05-16T15:53:50.805Z,10.97
2023-05-16T15:56:19.270Z,11.23
2023-05-16T15:58:47.266Z,11.30
2023-05-16T16:01:17.072Z,14.37
2023-05-16T16:03:45.598Z,8.73
2023-05-16T16:06:14.142Z,8.83
2023-05-16T16:08:42.927Z,9.63
2023-05-16T16:11:11.401Z,12.27
2023-05-16T16:13:40.009Z,10.43
2023-05-16T16:16:08.319Z,9.27
2023-05-16T16:18:37.115Z,9.57
2023-05-16T16:21:05.608Z,9.27
2023-05-16T16:23:33.838Z,11.03
2023-05-16T16:26:02.286Z,11.23
2023-05-16T16:28:31.077Z,9.70
2023-05-16T16:30:59.779Z,13.37
2023-05-16T16:33:28.455Z,13.50
2023-05-16T16:35:56.430Z,16.03
2023-05-16T16:38:25.007Z,14.10
2023-05-16T16:40:53.796Z,14.13
2023-05-16T16:43:22.303Z,14.43
2023-05-16T16:45:51.066Z,15.87
2023-05-16T16:48:19.960Z,14.40
2023-05-16T16:50:48.540Z,14.77
2023-05-16T16:53:17.231Z,14.27
2023-05-16T16:55:46.499Z,15.17
2023-05-16T16:58:15.217Z,15.73
2023-05-16T17:00:44.007Z,15.63
2023-05-16T17:03:13.256Z,15.23
2023-05-16T17:08:08.842Z,14.60
2023-05-16T17:10:37.729Z,13.87
2023-05-16T17:13:08.058Z,15.27
2023-05-16T17:15:36.633Z,12.20
2023-05-16T17:18:07.698Z,13.23
2023-05-16T17:20:36.875Z,14.03
2023-05-16T17:23:06.189Z,12.07
2023-05-16T17:25:34.659Z,14.43
2023-05-16T17:28:02.639Z,11.90
2023-05-16T17:30:31.511Z,15.00
2023-05-16T17:33:00.312Z,14.27
2023-05-16T17:35:29.356Z,15.47
2023-05-16T17:37:58.079Z,16.47
2023-05-16T17:40:26.281Z,16.80
2023-05-16T17:42:55.073Z,16.93
2023-05-16T17:45:23.625Z,17.63
2023-05-16T17:47:52.141Z,17.80
2023-05-16T17:50:22.301Z,20.27
2023-05-16T17:52:51.321Z,21.97
2023-05-16T17:55:20.146Z,20.43
2023-05-16T17:57:48.775Z,23.67
2023-05-16T18:00:18.425Z,19.60
2023-05-16T18:02:47.047Z,17.43
2023-05-16T18:05:17.349Z,15.20
2023-05-16T18:07:46.090Z,14.80
2023-05-16T18:10:14.992Z,18.07
2023-05-16T18:12:44.261Z,17.47
2023-05-16T18:15:13.453Z,15.23
2023-05-16T18:17:41.914Z,17.57
2023-05-16T18:20:11.851Z,17.17
2023-05-16T18:22:40.578Z,20.37
2023-05-16T18:25:10.393Z,18.30
2023-05-16T18:27:39.431Z,17.67
2023-05-16T18:30:08.646Z,17.10
2023-05-16T18:32:37.724Z,15.87
2023-05-16T18:35:06.474Z,17.73
2023-05-16T18:37:35.118Z,17.77
2023-05-16T18:40:03.822Z,17.30
2023-05-16T18:42:32.626Z,17.77
2023-05-16T18:45:01.211Z,18.07
2023-05-16T18:47:29.837Z,14.93
2023-05-16T18:49:58.378Z,15.17
2023-05-16T18:52:26.851Z,13.77
2023-05-16T18:54:55.772Z,13.80
2023-05-16T18:57:24.441Z,11.97
2023-05-16T18:59:53.852Z,10.73
2023-05-16T19:02:30.282Z,12.50
2023-05-16T19:04:52.635Z,11.67
2023-05-16T19:07:21.651Z,13.07
2023-05-16T19:09:50.244Z,12.30
2023-05-16T19:12:19.742Z,12.63
2023-05-16T19:14:52.791Z,10.43
2023-05-16T19:17:21.333Z,10.70
2023-05-16T19:19:50.166Z,10.27
2023-05-16T19:22:18.206Z,11.03
2023-05-16T19:24:46.752Z,11.53
2023-05-16T19:27:15.020Z,9.80
2023-05-16T19:29:42.946Z,9.97
2023-05-16T19:32:12.304Z,10.87
2023-05-16T19:37:09.339Z,10.03
2023-05-16T19:39:38.370Z,11.40
2023-05-16T19:42:07.884Z,12.50
2023-05-16T19:44:37.066Z,10.63
2023-05-16T19:47:05.523Z,10.60
2023-05-16T19:49:34.149Z,9.90
2023-05-16T19:52:03.417Z,9.43
2023-05-16T19:59:27.453Z,8.80
2023-05-16T20:01:56.413Z,8.90
2023-05-16T20:04:25.217Z,7.80
2023-05-16T20:06:53.524Z,8.70
2023-05-16T20:09:22.212Z,8.50
2023-05-16T20:11:50.775Z,8.70
2023-05-16T20:14:19.239Z,8.43
2023-05-16T20:16:47.641Z,8.90
2023-05-16T20:19:18.068Z,7.57
2023-05-16T20:21:46.849Z,7.33
2023-05-16T20:24:15.823Z,6.70
2023-05-16T20:26:44.429Z,7.60
2023-05-16T20:29:13.091Z,7.13
2023-05-16T20:31:42.678Z,6.40
2023-05-16T20:34:11.818Z,6.53
2023-05-16T20:36:40.323Z,5.83
2023-05-16T20:39:09.596Z,5.90
2023-05-16T20:44:04.786Z,5.42
2023-05-16T20:46:34.015Z,5.90
2023-05-16T20:49:02.749Z,6.20
2023-05-16T20:51:31.895Z,6.40
2023-05-16T20:54:00.040Z,5.30
2023-05-16T20:56:28.756Z,6.83
2023-05-16T20:58:57.084Z,6.60
2023-05-16T21:01:25.488Z,6.73
2023-05-16T21:03:53.791Z,6.27
2023-05-16T21:06:22.575Z,5.57
2023-05-16T21:08:50.790Z,5.10
2023-05-16T21:11:19.150Z,5.97
2023-05-16T21:13:47.815Z,6.73
2023-05-16T21:16:16.619Z,7.20
2023-05-16T21:18:45.932Z,9.43
2023-05-16T21:21:14.796Z,10.27
2023-05-16T21:23:43.552Z,9.17
2023-05-16T21:26:12.239Z,11.17
2023-05-16T21:28:54.066Z,9.87
2023-05-16T21:31:11.176Z,8.50
2023-05-16T21:33:39.089Z,8.43
2023-05-16T21:36:07.306Z,8.50
2023-05-16T21:38:35.616Z,7.60
2023-05-16T21:41:04.411Z,9.00
2023-05-16T21:43:33.292Z,9.10
2023-05-16T21:46:01.969Z,9.60
2023-05-16T21:48:30.319Z,8.27
2023-05-16T21:50:58.417Z,6.90
2023-05-16T21:53:26.817Z,7.43
2023-05-16T21:55:55.384Z,8.33
2023-05-16T21:58:24.581Z,8.20
2023-05-16T22:00:52.837Z,8.33
2023-05-16T22:03:22.067Z,6.97
2023-05-16T22:08:18.505Z,6.05
2023-05-16T22:10:47.194Z,4.83
2023-05-16T22:13:15.080Z,5.23
2023-05-16T22:15:49.314Z,5.87
2023-05-16T22:18:13.515Z,5.53
2023-05-16T22:20:41.831Z,5.70
2023-05-16T22:23:09.686Z,5.70
2023-05-16T22:25:38.419Z,6.33
2023-05-16T22:28:07.042Z,5.50
2023-05-16T22:30:35.861Z,5.70
2023-05-16T22:33:05.132Z,6.47
2023-05-16T22:35:33.735Z,5.70
2023-05-16T22:38:02.102Z,7.27
2023-05-16T22:40:31.325Z,6.33
2023-05-16T22:42:59.800Z,5.60
2023-05-16T22:45:28.293Z,6.67
2023-05-16T22:47:57.113Z,6.40
2023-05-16T22:50:26.108Z,5.87
2023-05-16T22:52:54.126Z,6.90
2023-05-16T22:55:22.215Z,6.80
2023-05-16T22:57:50.154Z,7.23
2023-05-16T23:00:20.925Z,7.00
2023-05-16T23:02:49.598Z,5.80
2023-05-16T23:05:18.003Z,6.77
2023-05-16T23:07:46.540Z,6.47
2023-05-16T23:10:15.059Z,6.73
2023-05-16T23:12:42.956Z,6.17
2023-05-16T23:15:11.502Z,6.00
2023-05-16T23:17:39.696Z,6.03
2023-05-16T23:20:08.780Z,6.80
2023-05-16T23:22:36.627Z,6.30
2023-05-16T23:25:04.729Z,6.60
2023-05-16T23:27:35.349Z,5.73
2023-05-16T23:30:04.584Z,6.03
2023-05-16T23:32:33.163Z,6.43
2023-05-16T23:35:01.482Z,6.47
2023-05-16T23:37:31.216Z,6.03
2023-05-16T23:39:59.565Z,6.43
2023-05-16T23:42:28.276Z,7.47
2023-05-16T23:44:56.551Z,7.53
2023-05-16T23:47:25.194Z,7.67
2023-05-16T23:49:53.483Z,6.40
2023-05-16T23:52:21.506Z,6.53
2023-05-16T23:54:49.613Z,6.93
2023-05-16T23:57:18.347Z,6.83
2023-05-16T23:59:46.926Z,6.57
